sensor_id;sensor_type;location;lat;lon;timestamp;temperature;humidity
25550;DHT22;13444;50.562;7.262;2022-12-29T00:02:16;11.90;99.90
25550;DHT22;13444;50.562;7.262;2022-12-29T00:04:42;11.90;99.90
25550;DHT22;13444;50.562;7.262;2022-12-29T00:07:08;11.90;99.90
25550;DHT22;13444;50.562;7.262;2022-12-29T00:09:34;11.90;99.90
25550;DHT22;13444;50.562;7.262;2022-12-29T00:12:00;11.80;99.90
25550;DHT22;13444;50.562;7.262;2022-12-29T00:14:26;11.80;99.90
25550;DHT22;13444;50.562;7.262;2022-12-29T00:17:11;11.70;99.90
25550;DHT22;13444;50.562;7.262;2022-12-29T00:19:36;11.70;99.90
25550;DHT22;13444;50.562;7.262;2022-12-29T00:22:21;11.70;99.90
25550;DHT22;13444;50.562;7.262;2022-12-29T00:25:08;11.80;99.90
25550;DHT22;13444;50.562;7.262;2022-12-29T00:27:34;11.70;99.90
25550;DHT22;13444;50.562;7.262;2022-12-29T00:30:22;11.70;99.90
25550;DHT22;13444;50.562;7.262;2022-12-29T00:33:15;11.70;99.90
25550;DHT22;13444;50.562;7.262;2022-12-29T00:36:05;11.60;99.90
25550;DHT22;13444;50.562;7.262;2022-12-29T00:38:32;11.60;99.90
25550;DHT22;13444;50.562;7.262;2022-12-29T00:41:18;11.60;99.90
25550;DHT22;13444;50.562;7.262;2022-12-29T00:44:03;11.50;99.90
25550;DHT22;13444;50.562;7.262;2022-12-29T00:46:38;11.50;99.90
25550;DHT22;13444;50.562;7.262;2022-12-29T00:49:05;11.50;99.90
25550;DHT22;13444;50.562;7.262;2022-12-29T00:51:50;11.40;99.90
25550;DHT22;13444;50.562;7.262;2022-12-29T00:54:16;11.50;99.90
25550;DHT22;13444;50.562;7.262;2022-12-29T00:56:42;11.50;99.90
25550;DHT22;13444;50.562;7.262;2022-12-29T00:59:09;11.50;99.90
25550;DHT22;13444;50.562;7.262;2022-12-29T01:01:36;11.50;99.90
25550;DHT22;13444;50.562;7.262;2022-12-29T01:04:03;11.50;99.90
25550;DHT22;13444;50.562;7.262;2022-12-29T01:06:28;11.50;99.90
25550;DHT22;13444;50.562;7.262;2022-12-29T01:08:54;11.50;99.90
25550;DHT22;13444;50.562;7.262;2022-12-29T01:11:39;11.50;99.90
25550;DHT22;13444;50.562;7.262;2022-12-29T01:14:05;11.50;99.90
25550;DHT22;13444;50.562;7.262;2022-12-29T01:16:31;11.50;99.90
25550;DHT22;13444;50.562;7.262;2022-12-29T01:18:56;11.50;99.90
25550;DHT22;13444;50.562;7.262;2022-12-29T01:21:22;11.50;99.90
25550;DHT22;13444;50.562;7.262;2022-12-29T01:23:48;11.50;99.90
25550;DHT22;13444;50.562;7.262;2022-12-29T01:26:15;11.60;99.90
25550;DHT22;13444;50.562;7.262;2022-12-29T01:28:41;11.60;99.90
25550;DHT22;13444;50.562;7.262;2022-12-29T01:31:11;11.70;99.90
25550;DHT22;13444;50.562;7.262;2022-12-29T01:33:37;11.70;99.90
25550;DHT22;13444;50.562;7.262;2022-12-29T01:36:08;11.80;99.90
25550;DHT22;13444;50.562;7.262;2022-12-29T01:38:36;11.80;99.90
25550;DHT22;13444;50.562;7.262;2022-12-29T01:41:02;11.90;99.90
25550;DHT22;13444;50.562;7.262;2022-12-29T01:43:50;11.90;99.90
25550;DHT22;13444;50.562;7.262;2022-12-29T01:46:24;12.00;99.90
25550;DHT22;13444;50.562;7.262;2022-12-29T01:51:28;12.00;99.90
25550;DHT22;13444;50.562;7.262;2022-12-29T01:53:55;12.10;99.90
25550;DHT22;13444;50.562;7.262;2022-12-29T01:56:24;12.10;99.90
25550;DHT22;13444;50.562;7.262;2022-12-29T01:58:56;12.10;99.90
25550;DHT22;13444;50.562;7.262;2022-12-29T02:01:25;12.20;99.90
25550;DHT22;13444;50.562;7.262;2022-12-29T02:03:51;12.30;99.90
25550;DHT22;13444;50.562;7.262;2022-12-29T02:06:21;12.30;99.90
25550;DHT22;13444;50.562;7.262;2022-12-29T02:08:47;12.30;99.90
25550;DHT22;13444;50.562;7.262;2022-12-29T02:11:16;12.30;99.90
25550;DHT22;13444;50.562;7.262;2022-12-29T02:13:41;12.30;99.90
25550;DHT22;13444;50.562;7.262;2022-12-29T02:16:40;12.30;99.90
25550;DHT22;13444;50.562;7.262;2022-12-29T02:25:25;12.20;99.90
25550;DHT22;13444;50.562;7.262;2022-12-29T02:31:35;12.20;99.90
25550;DHT22;13444;50.562;7.262;2022-12-29T02:34:10;12.20;99.90
25550;DHT22;13444;50.562;7.262;2022-12-29T02:39:50;12.20;99.90
25550;DHT22;13444;50.562;7.262;2022-12-29T02:42:33;12.10;99.90
25550;DHT22;13444;50.562;7.262;2022-12-29T02:47:50;12.00;99.90
25550;DHT22;13444;50.562;7.262;2022-12-29T02:52:58;11.90;99.90
25550;DHT22;13444;50.562;7.262;2022-12-29T02:55:24;11.90;99.90
25550;DHT22;13444;50.562;7.262;2022-12-29T02:58:16;11.90;99.90
25550;DHT22;13444;50.562;7.262;2022-12-29T03:00:54;11.90;99.90
25550;DHT22;13444;50.562;7.262;2022-12-29T03:03:30;11.90;99.90
25550;DHT22;13444;50.562;7.262;2022-12-29T03:09:26;11.90;99.90
25550;DHT22;13444;50.562;7.262;2022-12-29T03:14:44;11.90;99.90
25550;DHT22;13444;50.562;7.262;2022-12-29T03:17:43;11.90;99.90
25550;DHT22;13444;50.562;7.262;2022-12-29T03:20:16;12.00;99.90
25550;DHT22;13444;50.562;7.262;2022-12-29T03:22:45;12.00;99.90
25550;DHT22;13444;50.562;7.262;2022-12-29T03:25:29;12.00;99.90
25550;DHT22;13444;50.562;7.262;2022-12-29T03:27:58;12.10;99.90
25550;DHT22;13444;50.562;7.262;2022-12-29T03:30:27;12.00;99.90
25550;DHT22;13444;50.562;7.262;2022-12-29T03:33:00;12.00;99.90
25550;DHT22;13444;50.562;7.262;2022-12-29T03:35:31;12.00;99.90
25550;DHT22;13444;50.562;7.262;2022-12-29T03:40:33;11.90;99.90
25550;DHT22;13444;50.562;7.262;2022-12-29T03:43:01;11.90;99.90
25550;DHT22;13444;50.562;7.262;2022-12-29T03:45:27;11.90;99.90
25550;DHT22;13444;50.562;7.262;2022-12-29T03:47:53;11.80;99.90
25550;DHT22;13444;50.562;7.262;2022-12-29T03:50:19;11.80;99.90
25550;DHT22;13444;50.562;7.262;2022-12-29T03:52:44;11.80;99.90
25550;DHT22;13444;50.562;7.262;2022-12-29T03:55:10;11.80;99.90
25550;DHT22;13444;50.562;7.262;2022-12-29T03:57:35;11.80;99.90
25550;DHT22;13444;50.562;7.262;2022-12-29T04:00:01;11.70;99.90
25550;DHT22;13444;50.562;7.262;2022-12-29T04:02:27;11.70;99.90
25550;DHT22;13444;50.562;7.262;2022-12-29T04:04:52;11.70;99.90
25550;DHT22;13444;50.562;7.262;2022-12-29T04:07:18;11.70;99.90
25550;DHT22;13444;50.562;7.262;2022-12-29T04:09:43;11.70;99.90
25550;DHT22;13444;50.562;7.262;2022-12-29T04:12:09;11.70;99.90
25550;DHT22;13444;50.562;7.262;2022-12-29T04:14:34;11.70;99.90
25550;DHT22;13444;50.562;7.262;2022-12-29T04:17:00;11.80;99.90
25550;DHT22;13444;50.562;7.262;2022-12-29T04:19:25;11.80;99.90
25550;DHT22;13444;50.562;7.262;2022-12-29T04:21:51;11.90;99.90
25550;DHT22;13444;50.562;7.262;2022-12-29T04:24:16;11.90;99.90
25550;DHT22;13444;50.562;7.262;2022-12-29T04:26:42;11.90;99.90
25550;DHT22;13444;50.562;7.262;2022-12-29T04:29:07;11.90;99.90
25550;DHT22;13444;50.562;7.262;2022-12-29T04:31:33;11.90;99.90
25550;DHT22;13444;50.562;7.262;2022-12-29T04:33:58;12.00;99.90
25550;DHT22;13444;50.562;7.262;2022-12-29T04:36:25;11.90;99.90
25550;DHT22;13444;50.562;7.262;2022-12-29T04:38:51;11.90;99.90
25550;DHT22;13444;50.562;7.262;2022-12-29T04:41:16;11.90;99.90
25550;DHT22;13444;50.562;7.262;2022-12-29T04:43:42;11.90;99.90
25550;DHT22;13444;50.562;7.262;2022-12-29T04:46:07;11.90;99.90
25550;DHT22;13444;50.562;7.262;2022-12-29T04:48:33;11.90;99.90
25550;DHT22;13444;50.562;7.262;2022-12-29T04:50:58;11.90;99.90
25550;DHT22;13444;50.562;7.262;2022-12-29T04:53:24;11.90;99.90
25550;DHT22;13444;50.562;7.262;2022-12-29T04:55:52;11.90;99.90
25550;DHT22;13444;50.562;7.262;2022-12-29T04:58:19;11.90;99.90
25550;DHT22;13444;50.562;7.262;2022-12-29T05:00:45;11.90;99.90
25550;DHT22;13444;50.562;7.262;2022-12-29T05:03:10;11.90;99.90
25550;DHT22;13444;50.562;7.262;2022-12-29T05:05:36;11.90;99.90
25550;DHT22;13444;50.562;7.262;2022-12-29T05:08:02;11.80;99.90
25550;DHT22;13444;50.562;7.262;2022-12-29T05:10:27;11.80;99.90
25550;DHT22;13444;50.562;7.262;2022-12-29T05:12:53;11.80;99.90
25550;DHT22;13444;50.562;7.262;2022-12-29T05:15:18;11.70;99.90
25550;DHT22;13444;50.562;7.262;2022-12-29T05:17:44;11.60;99.90
25550;DHT22;13444;50.562;7.262;2022-12-29T05:20:10;11.60;99.90
25550;DHT22;13444;50.562;7.262;2022-12-29T05:22:36;11.70;99.90
25550;DHT22;13444;50.562;7.262;2022-12-29T05:25:02;11.60;99.90
25550;DHT22;13444;50.562;7.262;2022-12-29T05:27:27;11.60;99.90
25550;DHT22;13444;50.562;7.262;2022-12-29T05:29:53;11.60;99.90
25550;DHT22;13444;50.562;7.262;2022-12-29T05:32:19;11.60;99.90
25550;DHT22;13444;50.562;7.262;2022-12-29T05:34:44;11.60;99.90
25550;DHT22;13444;50.562;7.262;2022-12-29T05:37:10;11.50;99.90
25550;DHT22;13444;50.562;7.262;2022-12-29T05:39:35;11.50;99.90
25550;DHT22;13444;50.562;7.262;2022-12-29T05:42:01;11.60;99.90
25550;DHT22;13444;50.562;7.262;2022-12-29T05:44:26;11.60;99.90
25550;DHT22;13444;50.562;7.262;2022-12-29T05:46:52;11.60;99.90
25550;DHT22;13444;50.562;7.262;2022-12-29T05:49:17;11.60;99.90
25550;DHT22;13444;50.562;7.262;2022-12-29T05:51:43;11.60;99.90
25550;DHT22;13444;50.562;7.262;2022-12-29T05:54:08;11.60;99.90
25550;DHT22;13444;50.562;7.262;2022-12-29T05:56:34;11.60;99.90
25550;DHT22;13444;50.562;7.262;2022-12-29T05:59:00;11.60;99.90
25550;DHT22;13444;50.562;7.262;2022-12-29T06:01:25;11.60;99.90
25550;DHT22;13444;50.562;7.262;2022-12-29T06:03:51;11.60;99.90
25550;DHT22;13444;50.562;7.262;2022-12-29T06:06:16;11.60;99.90
25550;DHT22;13444;50.562;7.262;2022-12-29T06:08:42;11.60;99.90
25550;DHT22;13444;50.562;7.262;2022-12-29T06:11:07;11.60;99.90
25550;DHT22;13444;50.562;7.262;2022-12-29T06:13:33;11.50;99.90
25550;DHT22;13444;50.562;7.262;2022-12-29T06:15:58;11.60;99.90
25550;DHT22;13444;50.562;7.262;2022-12-29T06:18:24;11.60;99.90
25550;DHT22;13444;50.562;7.262;2022-12-29T06:20:50;11.60;99.90
25550;DHT22;13444;50.562;7.262;2022-12-29T06:23:15;11.60;99.90
25550;DHT22;13444;50.562;7.262;2022-12-29T06:25:41;11.60;99.90
25550;DHT22;13444;50.562;7.262;2022-12-29T06:28:07;11.60;99.90
25550;DHT22;13444;50.562;7.262;2022-12-29T06:30:33;11.50;99.90
25550;DHT22;13444;50.562;7.262;2022-12-29T06:32:59;11.50;99.90
25550;DHT22;13444;50.562;7.262;2022-12-29T06:35:24;11.50;99.90
25550;DHT22;13444;50.562;7.262;2022-12-29T06:37:50;11.50;99.90
25550;DHT22;13444;50.562;7.262;2022-12-29T06:40:16;11.50;99.90
25550;DHT22;13444;50.562;7.262;2022-12-29T06:42:41;11.40;99.90
25550;DHT22;13444;50.562;7.262;2022-12-29T06:45:07;11.40;99.90
25550;DHT22;13444;50.562;7.262;2022-12-29T06:47:34;11.30;99.90
25550;DHT22;13444;50.562;7.262;2022-12-29T06:50:00;11.30;99.90
25550;DHT22;13444;50.562;7.262;2022-12-29T06:52:25;11.30;99.90
25550;DHT22;13444;50.562;7.262;2022-12-29T06:54:51;11.20;99.90
25550;DHT22;13444;50.562;7.262;2022-12-29T06:57:17;11.30;99.90
25550;DHT22;13444;50.562;7.262;2022-12-29T06:59:42;11.30;99.90
25550;DHT22;13444;50.562;7.262;2022-12-29T07:02:10;11.20;99.90
25550;DHT22;13444;50.562;7.262;2022-12-29T07:04:36;11.20;99.90
25550;DHT22;13444;50.562;7.262;2022-12-29T07:07:01;11.20;99.90
25550;DHT22;13444;50.562;7.262;2022-12-29T07:09:27;11.30;99.90
25550;DHT22;13444;50.562;7.262;2022-12-29T07:11:52;11.30;99.90
25550;DHT22;13444;50.562;7.262;2022-12-29T07:14:18;11.40;99.90
25550;DHT22;13444;50.562;7.262;2022-12-29T07:16:44;11.40;99.90
25550;DHT22;13444;50.562;7.262;2022-12-29T07:19:09;11.50;99.90
25550;DHT22;13444;50.562;7.262;2022-12-29T07:21:35;11.50;99.90
25550;DHT22;13444;50.562;7.262;2022-12-29T07:24:00;11.50;99.90
25550;DHT22;13444;50.562;7.262;2022-12-29T07:26:27;11.50;99.90
25550;DHT22;13444;50.562;7.262;2022-12-29T07:28:52;11.50;99.90
25550;DHT22;13444;50.562;7.262;2022-12-29T07:31:20;11.40;99.90
25550;DHT22;13444;50.562;7.262;2022-12-29T07:33:47;11.40;99.90
25550;DHT22;13444;50.562;7.262;2022-12-29T07:36:13;11.40;99.90
25550;DHT22;13444;50.562;7.262;2022-12-29T07:38:39;11.40;99.90
25550;DHT22;13444;50.562;7.262;2022-12-29T07:41:05;11.50;99.90
25550;DHT22;13444;50.562;7.262;2022-12-29T07:43:31;11.50;99.90
25550;DHT22;13444;50.562;7.262;2022-12-29T07:45:56;11.40;99.90
25550;DHT22;13444;50.562;7.262;2022-12-29T07:48:22;11.40;99.90
25550;DHT22;13444;50.562;7.262;2022-12-29T07:50:48;11.40;99.90
25550;DHT22;13444;50.562;7.262;2022-12-29T07:53:14;11.40;99.90
25550;DHT22;13444;50.562;7.262;2022-12-29T07:55:40;11.40;99.90
25550;DHT22;13444;50.562;7.262;2022-12-29T07:58:05;11.40;99.90
25550;DHT22;13444;50.562;7.262;2022-12-29T08:00:31;11.40;99.90
25550;DHT22;13444;50.562;7.262;2022-12-29T08:02:56;11.50;99.90
25550;DHT22;13444;50.562;7.262;2022-12-29T08:05:22;11.50;99.90
25550;DHT22;13444;50.562;7.262;2022-12-29T08:07:47;11.40;99.90
25550;DHT22;13444;50.562;7.262;2022-12-29T08:10:14;11.40;99.90
25550;DHT22;13444;50.562;7.262;2022-12-29T08:12:40;11.40;99.90
25550;DHT22;13444;50.562;7.262;2022-12-29T08:15:07;11.50;99.90
25550;DHT22;13444;50.562;7.262;2022-12-29T08:17:33;11.50;99.90
25550;DHT22;13444;50.562;7.262;2022-12-29T08:19:59;11.50;99.90
25550;DHT22;13444;50.562;7.262;2022-12-29T08:22:24;11.50;99.90
25550;DHT22;13444;50.562;7.262;2022-12-29T08:24:50;11.50;99.90
25550;DHT22;13444;50.562;7.262;2022-12-29T08:27:18;11.60;99.90
25550;DHT22;13444;50.562;7.262;2022-12-29T08:29:43;11.50;99.90
25550;DHT22;13444;50.562;7.262;2022-12-29T08:32:09;11.50;99.90
25550;DHT22;13444;50.562;7.262;2022-12-29T08:34:35;11.60;99.90
25550;DHT22;13444;50.562;7.262;2022-12-29T08:37:01;11.50;99.90
25550;DHT22;13444;50.562;7.262;2022-12-29T08:39:26;11.50;99.90
25550;DHT22;13444;50.562;7.262;2022-12-29T08:41:52;11.60;99.90
25550;DHT22;13444;50.562;7.262;2022-12-29T08:44:17;11.50;99.90
25550;DHT22;13444;50.562;7.262;2022-12-29T08:46:43;11.60;99.90
25550;DHT22;13444;50.562;7.262;2022-12-29T08:49:09;11.60;99.90
25550;DHT22;13444;50.562;7.262;2022-12-29T08:51:34;11.60;99.90
25550;DHT22;13444;50.562;7.262;2022-12-29T08:54:00;11.70;99.90
25550;DHT22;13444;50.562;7.262;2022-12-29T08:56:25;11.70;99.90
25550;DHT22;13444;50.562;7.262;2022-12-29T08:58:52;11.70;99.90
25550;DHT22;13444;50.562;7.262;2022-12-29T09:01:17;11.70;99.90
25550;DHT22;13444;50.562;7.262;2022-12-29T09:03:43;11.70;99.90
25550;DHT22;13444;50.562;7.262;2022-12-29T09:06:09;11.70;99.90
25550;DHT22;13444;50.562;7.262;2022-12-29T09:08:35;11.70;99.90
25550;DHT22;13444;50.562;7.262;2022-12-29T09:11:12;11.70;99.90
25550;DHT22;13444;50.562;7.262;2022-12-29T09:13:38;11.80;99.90
25550;DHT22;13444;50.562;7.262;2022-12-29T09:16:04;11.70;99.90
25550;DHT22;13444;50.562;7.262;2022-12-29T09:18:30;11.70;99.90
25550;DHT22;13444;50.562;7.262;2022-12-29T09:21:00;11.70;99.90
25550;DHT22;13444;50.562;7.262;2022-12-29T09:23:26;11.70;99.90
25550;DHT22;13444;50.562;7.262;2022-12-29T09:25:53;11.60;99.90
25550;DHT22;13444;50.562;7.262;2022-12-29T09:28:19;11.70;99.90
25550;DHT22;13444;50.562;7.262;2022-12-29T09:30:45;11.80;99.90
25550;DHT22;13444;50.562;7.262;2022-12-29T09:33:10;11.80;99.90
25550;DHT22;13444;50.562;7.262;2022-12-29T09:35:36;11.80;99.90
25550;DHT22;13444;50.562;7.262;2022-12-29T09:38:01;11.80;99.90
25550;DHT22;13444;50.562;7.262;2022-12-29T09:40:30;11.80;99.90
25550;DHT22;13444;50.562;7.262;2022-12-29T09:45:43;11.80;99.90
25550;DHT22;13444;50.562;7.262;2022-12-29T09:48:31;11.80;99.90
25550;DHT22;13444;50.562;7.262;2022-12-29T09:51:02;11.90;99.90
25550;DHT22;13444;50.562;7.262;2022-12-29T09:53:36;11.90;99.90
25550;DHT22;13444;50.562;7.262;2022-12-29T09:56:05;11.90;99.90
25550;DHT22;13444;50.562;7.262;2022-12-29T09:58:37;11.90;99.90
25550;DHT22;13444;50.562;7.262;2022-12-29T10:01:32;11.90;99.90
25550;DHT22;13444;50.562;7.262;2022-12-29T10:04:00;12.00;99.90
25550;DHT22;13444;50.562;7.262;2022-12-29T10:12:47;12.10;99.90
25550;DHT22;13444;50.562;7.262;2022-12-29T10:17:53;12.20;99.90
25550;DHT22;13444;50.562;7.262;2022-12-29T10:20:55;12.20;99.90
25550;DHT22;13444;50.562;7.262;2022-12-29T10:23:27;12.30;99.90
25550;DHT22;13444;50.562;7.262;2022-12-29T10:25:56;12.30;99.90
25550;DHT22;13444;50.562;7.262;2022-12-29T10:28:24;12.30;99.90
25550;DHT22;13444;50.562;7.262;2022-12-29T10:31:00;12.40;99.90
25550;DHT22;13444;50.562;7.262;2022-12-29T10:33:34;12.40;99.90
25550;DHT22;13444;50.562;7.262;2022-12-29T10:36:13;12.50;99.90
25550;DHT22;13444;50.562;7.262;2022-12-29T10:38:58;12.40;99.90
25550;DHT22;13444;50.562;7.262;2022-12-29T10:41:55;12.60;99.90
25550;DHT22;13444;50.562;7.262;2022-12-29T10:44:26;12.80;99.90
25550;DHT22;13444;50.562;7.262;2022-12-29T10:47:06;13.00;99.90
25550;DHT22;13444;50.562;7.262;2022-12-29T10:49:36;13.10;99.90
25550;DHT22;13444;50.562;7.262;2022-12-29T10:52:03;13.20;99.90
25550;DHT22;13444;50.562;7.262;2022-12-29T10:54:35;13.20;99.90
25550;DHT22;13444;50.562;7.262;2022-12-29T10:57:10;13.30;99.90
25550;DHT22;13444;50.562;7.262;2022-12-29T10:59:37;13.40;99.90
25550;DHT22;13444;50.562;7.262;2022-12-29T11:05:01;13.50;99.90
25550;DHT22;13444;50.562;7.262;2022-12-29T11:07:30;13.40;99.90
25550;DHT22;13444;50.562;7.262;2022-12-29T11:10:16;13.40;99.90
25550;DHT22;13444;50.562;7.262;2022-12-29T11:12:59;13.30;99.90
25550;DHT22;13444;50.562;7.262;2022-12-29T11:15:24;13.20;99.90
25550;DHT22;13444;50.562;7.262;2022-12-29T11:17:53;13.20;99.90
25550;DHT22;13444;50.562;7.262;2022-12-29T11:22:53;13.00;99.90
25550;DHT22;13444;50.562;7.262;2022-12-29T11:25:19;13.00;99.90
25550;DHT22;13444;50.562;7.262;2022-12-29T11:28:14;13.00;99.90
25550;DHT22;13444;50.562;7.262;2022-12-29T11:30:40;13.00;99.90
25550;DHT22;13444;50.562;7.262;2022-12-29T11:33:06;12.90;99.90
25550;DHT22;13444;50.562;7.262;2022-12-29T11:35:35;12.90;99.90
25550;DHT22;13444;50.562;7.262;2022-12-29T11:38:01;13.00;99.90
25550;DHT22;13444;50.562;7.262;2022-12-29T11:40:27;12.90;99.90
25550;DHT22;13444;50.562;7.262;2022-12-29T11:42:54;12.90;99.90
25550;DHT22;13444;50.562;7.262;2022-12-29T11:45:24;12.90;99.90
25550;DHT22;13444;50.562;7.262;2022-12-29T11:48:09;12.90;99.90
25550;DHT22;13444;50.562;7.262;2022-12-29T11:50:41;12.90;99.90
25550;DHT22;13444;50.562;7.262;2022-12-29T11:53:24;12.90;99.90
25550;DHT22;13444;50.562;7.262;2022-12-29T11:55:59;12.90;99.90
25550;DHT22;13444;50.562;7.262;2022-12-29T11:58:33;12.90;99.90
25550;DHT22;13444;50.562;7.262;2022-12-29T12:03:47;12.90;99.90
25550;DHT22;13444;50.562;7.262;2022-12-29T12:06:19;12.90;99.90
25550;DHT22;13444;50.562;7.262;2022-12-29T12:08:55;12.90;99.90
25550;DHT22;13444;50.562;7.262;2022-12-29T12:11:30;12.90;99.90
25550;DHT22;13444;50.562;7.262;2022-12-29T12:16:43;12.90;99.90
25550;DHT22;13444;50.562;7.262;2022-12-29T12:19:23;12.90;99.90
25550;DHT22;13444;50.562;7.262;2022-12-29T12:21:56;12.90;99.90
25550;DHT22;13444;50.562;7.262;2022-12-29T12:32:38;13.10;99.90
25550;DHT22;13444;50.562;7.262;2022-12-29T12:35:12;13.00;99.90
25550;DHT22;13444;50.562;7.262;2022-12-29T12:40:43;12.90;99.90
25550;DHT22;13444;50.562;7.262;2022-12-29T12:43:45;12.90;99.90
25550;DHT22;13444;50.562;7.262;2022-12-29T12:46:28;13.00;99.90
25550;DHT22;13444;50.562;7.262;2022-12-29T12:52:21;13.00;99.90
25550;DHT22;13444;50.562;7.262;2022-12-29T12:55:22;13.00;99.90
25550;DHT22;13444;50.562;7.262;2022-12-29T12:58:04;12.90;99.90
25550;DHT22;13444;50.562;7.262;2022-12-29T13:00:42;12.90;99.90
25550;DHT22;13444;50.562;7.262;2022-12-29T13:03:26;12.80;99.90
25550;DHT22;13444;50.562;7.262;2022-12-29T13:06:12;12.80;99.90
25550;DHT22;13444;50.562;7.262;2022-12-29T13:09:00;12.80;99.90
25550;DHT22;13444;50.562;7.262;2022-12-29T13:17:28;12.70;99.90
25550;DHT22;13444;50.562;7.262;2022-12-29T13:20:25;12.70;99.90
25550;DHT22;13444;50.562;7.262;2022-12-29T13:22:57;12.70;99.90
25550;DHT22;13444;50.562;7.262;2022-12-29T13:25:51;12.80;99.90
25550;DHT22;13444;50.562;7.262;2022-12-29T13:28:32;12.70;99.90
25550;DHT22;13444;50.562;7.262;2022-12-29T13:31:16;12.60;99.90
25550;DHT22;13444;50.562;7.262;2022-12-29T13:36:55;12.60;99.90
25550;DHT22;13444;50.562;7.262;2022-12-29T13:41:53;12.60;99.90
25550;DHT22;13444;50.562;7.262;2022-12-29T13:44:23;12.60;99.90
25550;DHT22;13444;50.562;7.262;2022-12-29T13:46:51;12.60;99.90
25550;DHT22;13444;50.562;7.262;2022-12-29T13:49:19;12.60;99.90
25550;DHT22;13444;50.562;7.262;2022-12-29T13:51:52;12.60;99.90
25550;DHT22;13444;50.562;7.262;2022-12-29T13:55:02;12.50;99.90
25550;DHT22;13444;50.562;7.262;2022-12-29T13:57:48;12.60;99.90
25550;DHT22;13444;50.562;7.262;2022-12-29T14:00:19;12.50;99.90
25550;DHT22;13444;50.562;7.262;2022-12-29T14:07:43;12.60;99.90
25550;DHT22;13444;50.562;7.262;2022-12-29T14:13:14;12.50;99.90
25550;DHT22;13444;50.562;7.262;2022-12-29T14:15:43;12.50;99.90
25550;DHT22;13444;50.562;7.262;2022-12-29T14:18:21;12.60;99.90
25550;DHT22;13444;50.562;7.262;2022-12-29T14:20:59;12.70;99.90
25550;DHT22;13444;50.562;7.262;2022-12-29T14:23:43;12.80;99.90
25550;DHT22;13444;50.562;7.262;2022-12-29T14:28:49;12.90;99.90
25550;DHT22;13444;50.562;7.262;2022-12-29T14:33:41;12.70;99.90
25550;DHT22;13444;50.562;7.262;2022-12-29T14:36:33;12.70;99.90
25550;DHT22;13444;50.562;7.262;2022-12-29T14:38:59;12.60;99.90
25550;DHT22;13444;50.562;7.262;2022-12-29T14:41:38;12.60;99.90
25550;DHT22;13444;50.562;7.262;2022-12-29T14:46:48;12.50;99.90
25550;DHT22;13444;50.562;7.262;2022-12-29T14:49:20;12.50;99.90
25550;DHT22;13444;50.562;7.262;2022-12-29T14:51:47;12.40;99.90
25550;DHT22;13444;50.562;7.262;2022-12-29T14:57:03;12.30;99.90
25550;DHT22;13444;50.562;7.262;2022-12-29T14:59:31;12.20;99.90
25550;DHT22;13444;50.562;7.262;2022-12-29T15:01:58;12.10;99.90
25550;DHT22;13444;50.562;7.262;2022-12-29T15:04:30;12.10;99.90
25550;DHT22;13444;50.562;7.262;2022-12-29T15:06:56;12.00;99.90
25550;DHT22;13444;50.562;7.262;2022-12-29T15:09:38;12.00;99.90
25550;DHT22;13444;50.562;7.262;2022-12-29T15:12:22;11.90;99.90
25550;DHT22;13444;50.562;7.262;2022-12-29T15:14:54;11.80;99.90
25550;DHT22;13444;50.562;7.262;2022-12-29T15:19:52;11.80;99.90
25550;DHT22;13444;50.562;7.262;2022-12-29T15:22:17;11.70;99.90
25550;DHT22;13444;50.562;7.262;2022-12-29T15:24:43;11.70;99.90
25550;DHT22;13444;50.562;7.262;2022-12-29T15:27:18;11.70;99.90
25550;DHT22;13444;50.562;7.262;2022-12-29T15:29:45;11.60;99.90
25550;DHT22;13444;50.562;7.262;2022-12-29T15:32:22;11.60;99.90
25550;DHT22;13444;50.562;7.262;2022-12-29T15:34:52;11.60;99.90
25550;DHT22;13444;50.562;7.262;2022-12-29T15:37:25;11.50;99.90
25550;DHT22;13444;50.562;7.262;2022-12-29T15:39:52;11.60;99.90
25550;DHT22;13444;50.562;7.262;2022-12-29T15:42:44;11.60;99.90
25550;DHT22;13444;50.562;7.262;2022-12-29T15:45:14;11.50;99.90
25550;DHT22;13444;50.562;7.262;2022-12-29T15:47:42;11.40;99.90
25550;DHT22;13444;50.562;7.262;2022-12-29T15:52:43;11.40;99.90
25550;DHT22;13444;50.562;7.262;2022-12-29T15:55:21;11.40;99.90
25550;DHT22;13444;50.562;7.262;2022-12-29T15:57:49;11.40;99.90
25550;DHT22;13444;50.562;7.262;2022-12-29T16:00:24;11.40;99.90
25550;DHT22;13444;50.562;7.262;2022-12-29T16:02:51;11.40;99.90
25550;DHT22;13444;50.562;7.262;2022-12-29T16:05:18;11.40;99.90
25550;DHT22;13444;50.562;7.262;2022-12-29T16:07:56;11.40;99.90
25550;DHT22;13444;50.562;7.262;2022-12-29T16:12:51;11.30;99.90
25550;DHT22;13444;50.562;7.262;2022-12-29T16:15:17;11.20;99.90
25550;DHT22;13444;50.562;7.262;2022-12-29T16:17:48;11.10;99.90
25550;DHT22;13444;50.562;7.262;2022-12-29T16:20:20;11.10;99.90
25550;DHT22;13444;50.562;7.262;2022-12-29T16:22:48;11.00;99.90
25550;DHT22;13444;50.562;7.262;2022-12-29T16:25:25;10.90;99.90
25550;DHT22;13444;50.562;7.262;2022-12-29T16:27:52;10.80;99.90
25550;DHT22;13444;50.562;7.262;2022-12-29T16:30:26;10.80;99.90
25550;DHT22;13444;50.562;7.262;2022-12-29T16:32:54;10.70;99.90
25550;DHT22;13444;50.562;7.262;2022-12-29T16:35:26;10.70;99.90
25550;DHT22;13444;50.562;7.262;2022-12-29T16:40:53;10.60;99.90
25550;DHT22;13444;50.562;7.262;2022-12-29T16:43:35;10.50;99.90
25550;DHT22;13444;50.562;7.262;2022-12-29T16:46:26;10.50;99.90
25550;DHT22;13444;50.562;7.262;2022-12-29T16:48:54;10.50;99.90
25550;DHT22;13444;50.562;7.262;2022-12-29T16:51:31;10.40;99.90
25550;DHT22;13444;50.562;7.262;2022-12-29T16:53:58;10.40;99.90
25550;DHT22;13444;50.562;7.262;2022-12-29T16:56:27;10.40;99.90
25550;DHT22;13444;50.562;7.262;2022-12-29T16:59:07;10.40;99.90
25550;DHT22;13444;50.562;7.262;2022-12-29T17:01:38;10.40;99.90
25550;DHT22;13444;50.562;7.262;2022-12-29T17:04:12;10.40;99.90
25550;DHT22;13444;50.562;7.262;2022-12-29T17:06:39;10.30;99.90
25550;DHT22;13444;50.562;7.262;2022-12-29T17:09:21;10.30;99.90
25550;DHT22;13444;50.562;7.262;2022-12-29T17:11:52;10.30;99.90
25550;DHT22;13444;50.562;7.262;2022-12-29T17:14:41;10.20;99.90
25550;DHT22;13444;50.562;7.262;2022-12-29T17:17:17;10.20;99.90
25550;DHT22;13444;50.562;7.262;2022-12-29T17:19:53;10.20;99.90
25550;DHT22;13444;50.562;7.262;2022-12-29T17:22:25;10.10;99.90
25550;DHT22;13444;50.562;7.262;2022-12-29T17:24:55;10.10;99.90
25550;DHT22;13444;50.562;7.262;2022-12-29T17:27:34;10.10;99.90
25550;DHT22;13444;50.562;7.262;2022-12-29T17:30:08;10.10;99.90
25550;DHT22;13444;50.562;7.262;2022-12-29T17:32:35;10.10;99.90
25550;DHT22;13444;50.562;7.262;2022-12-29T17:35:00;10.00;99.90
25550;DHT22;13444;50.562;7.262;2022-12-29T17:37:29;10.00;99.90
25550;DHT22;13444;50.562;7.262;2022-12-29T17:39:55;10.00;99.90